createdAt,value
2019-02-26T00:01:08.747Z,4.10
2019-02-26T00:03:37.797Z,4.40
2019-02-26T00:06:06.174Z,4.40
2019-02-26T00:08:34.460Z,4.30
2019-02-26T00:11:03.756Z,4.30
2019-02-26T00:13:32.321Z,4.30
2019-02-26T00:16:03.142Z,4.30
2019-02-26T00:18:28.584Z,4.30
2019-02-26T00:20:59.040Z,4.30
2019-02-26T00:23:25.673Z,4.10
2019-02-26T00:25:54.267Z,4.10
2019-02-26T00:28:23.318Z,4.00
2019-02-26T00:30:51.706Z,4.00
2019-02-26T00:33:22.299Z,4.00
2019-02-26T00:35:50.179Z,3.90
2019-02-26T00:38:18.177Z,3.80
2019-02-26T00:40:45.209Z,3.90
2019-02-26T00:43:13.483Z,4.00
2019-02-26T00:45:41.782Z,4.00
2019-02-26T00:48:10.067Z,3.90
2019-02-26T00:50:39.821Z,3.90
2019-02-26T00:53:06.791Z,3.90
2019-02-26T00:55:37.340Z,3.90
2019-02-26T00:58:05.919Z,3.60
2019-02-26T01:00:33.214Z,3.60
2019-02-26T01:03:01.415Z,3.50
2019-02-26T01:05:29.304Z,3.50
2019-02-26T01:07:57.567Z,3.40
2019-02-26T01:10:25.869Z,3.30
2019-02-26T01:12:54.147Z,3.30
2019-02-26T01:15:22.458Z,3.20
2019-02-26T01:17:51.483Z,3.30
2019-02-26T01:20:22.646Z,3.30
2019-02-26T01:22:48.046Z,3.20
2019-02-26T01:25:18.469Z,3.30
2019-02-26T01:27:46.014Z,3.40
2019-02-26T01:30:13.074Z,3.30
2019-02-26T01:32:41.450Z,3.00
2019-02-26T01:35:11.230Z,2.90
2019-02-26T01:37:38.002Z,2.80
2019-02-26T01:40:09.448Z,3.00
2019-02-26T01:42:35.676Z,3.10
2019-02-26T01:45:04.866Z,3.10
2019-02-26T01:47:33.148Z,3.20
2019-02-26T01:50:01.431Z,3.20
2019-02-26T01:52:29.718Z,3.20
2019-02-26T01:55:00.129Z,3.10
2019-02-26T01:57:27.731Z,3.10
2019-02-26T01:59:54.614Z,3.30
2019-02-26T02:02:25.237Z,3.10
2019-02-26T02:04:51.903Z,3.30
2019-02-26T02:07:21.327Z,3.30
2019-02-26T02:09:51.294Z,3.20
2019-02-26T02:12:17.651Z,3.10
2019-02-26T02:14:45.935Z,3.10
2019-02-26T02:17:14.230Z,3.00
2019-02-26T02:19:42.479Z,2.80
2019-02-26T02:22:12.192Z,2.70
2019-02-26T02:24:41.558Z,2.70
2019-02-26T02:27:07.544Z,2.70
2019-02-26T02:29:36.619Z,2.90
2019-02-26T02:32:07.464Z,2.90
2019-02-26T02:34:36.585Z,2.90
2019-02-26T02:37:01.566Z,2.80
2019-02-26T02:39:30.816Z,2.90
2019-02-26T02:41:59.103Z,2.80
2019-02-26T02:44:27.400Z,2.70
2019-02-26T02:46:55.684Z,2.70
2019-02-26T02:49:24.843Z,2.80
2019-02-26T02:51:53.171Z,2.80
2019-02-26T02:54:23.643Z,2.80
2019-02-26T02:56:50.493Z,2.70
2019-02-26T02:59:18.790Z,2.70
2019-02-26T03:01:51.334Z,2.80
2019-02-26T03:04:19.647Z,2.50
2019-02-26T03:06:44.625Z,2.50
2019-02-26T03:09:15.226Z,2.50
2019-02-26T03:11:44.001Z,2.60
2019-02-26T03:14:11.011Z,2.70
2019-02-26T03:16:39.952Z,2.70
2019-02-26T03:19:07.753Z,2.50
2019-02-26T03:21:34.575Z,2.50
2019-02-26T03:24:05.641Z,2.40
2019-02-26T03:26:31.327Z,2.40
2019-02-26T03:28:59.660Z,2.60
2019-02-26T03:31:33.799Z,2.70
2019-02-26T03:34:04.619Z,2.60
2019-02-26T03:36:24.658Z,2.50
2019-02-26T03:38:54.758Z,2.40
2019-02-26T03:41:23.501Z,2.30
2019-02-26T03:43:49.563Z,2.40
2019-02-26T03:46:17.838Z,2.50
2019-02-26T03:48:46.144Z,2.60
2019-02-26T03:51:17.871Z,2.40
2019-02-26T03:53:44.137Z,2.40
2019-02-26T03:56:14.890Z,2.50
2019-02-26T03:58:40.269Z,2.50
2019-02-26T04:01:10.937Z,2.40
2019-02-26T04:03:39.641Z,2.40
2019-02-26T04:06:09.199Z,2.40
2019-02-26T04:08:34.499Z,2.40
2019-02-26T04:11:02.855Z,2.40
2019-02-26T04:13:31.143Z,2.30
2019-02-26T04:16:01.546Z,2.30
2019-02-26T04:18:28.614Z,2.30
2019-02-26T04:21:03.210Z,2.30
2019-02-26T04:23:25.255Z,2.40
2019-02-26T04:25:57.622Z,2.50
2019-02-26T04:28:33.000Z,2.60
2019-02-26T04:31:12.214Z,2.60
2019-02-26T04:34:01.797Z,2.30
2019-02-26T04:36:30.553Z,2.30
2019-02-26T04:39:23.508Z,2.10
2019-02-26T04:41:54.270Z,2.20
2019-02-26T04:44:31.210Z,2.20
2019-02-26T04:46:59.578Z,2.20
2019-02-26T04:49:28.138Z,2.30
2019-02-26T04:51:54.303Z,2.20
2019-02-26T04:54:26.321Z,2.10
2019-02-26T04:56:51.092Z,2.00
2019-02-26T04:59:19.259Z,2.00
2019-02-26T05:01:49.901Z,2.00
2019-02-26T05:04:16.645Z,2.00
2019-02-26T05:06:44.917Z,2.00
2019-02-26T05:09:14.071Z,1.90
2019-02-26T05:11:42.461Z,1.90
2019-02-26T05:14:15.022Z,1.70
2019-02-26T05:16:40.596Z,1.70
2019-02-26T05:19:10.663Z,1.60
2019-02-26T05:21:37.959Z,1.60
2019-02-26T05:24:06.293Z,1.80
2019-02-26T05:26:34.576Z,1.80
2019-02-26T05:29:02.931Z,1.70
2019-02-26T05:31:34.570Z,1.70
2019-02-26T05:34:00.079Z,1.70
2019-02-26T05:36:28.395Z,1.50
2019-02-26T05:38:57.581Z,1.50
2019-02-26T05:41:25.238Z,1.10
2019-02-26T05:43:57.829Z,1.10
2019-02-26T05:46:24.570Z,1.20
2019-02-26T05:48:51.178Z,1.30
2019-02-26T05:51:18.539Z,1.50
2019-02-26T05:53:46.836Z,1.50
2019-02-26T05:56:17.271Z,1.50
2019-02-26T05:58:46.358Z,1.50
2019-02-26T06:01:13.792Z,1.60
2019-02-26T06:03:41.059Z,1.50
2019-02-26T06:06:08.401Z,1.60
2019-02-26T06:08:39.277Z,1.40
2019-02-26T06:11:05.081Z,1.40
2019-02-26T06:13:35.574Z,1.60
2019-02-26T06:16:04.803Z,1.60
2019-02-26T06:18:30.727Z,1.50
2019-02-26T06:21:01.220Z,1.70
2019-02-26T06:23:30.660Z,1.70
2019-02-26T06:25:59.033Z,1.80
2019-02-26T06:28:24.831Z,1.80
2019-02-26T06:30:55.020Z,1.90
2019-02-26T06:33:21.473Z,2.10
2019-02-26T06:35:49.745Z,2.10
2019-02-26T06:38:18.018Z,2.10
2019-02-26T06:40:48.873Z,2.00
2019-02-26T06:43:14.679Z,2.00
2019-02-26T06:45:44.976Z,2.10
2019-02-26T06:48:14.694Z,2.20
2019-02-26T06:50:41.578Z,2.40
2019-02-26T06:53:09.125Z,2.40
2019-02-26T06:55:36.892Z,2.40
2019-02-26T06:58:13.126Z,2.40
2019-02-26T07:00:41.956Z,2.30
2019-02-26T07:03:09.703Z,2.20
2019-02-26T07:05:37.978Z,2.30
2019-02-26T07:08:06.661Z,2.30
2019-02-26T07:10:34.727Z,2.30
2019-02-26T07:13:05.050Z,2.10
2019-02-26T07:15:32.192Z,2.20
2019-02-26T07:18:04.431Z,2.20
2019-02-26T07:20:34.162Z,2.40
2019-02-26T07:22:57.112Z,2.50
2019-02-26T07:25:25.489Z,2.70
2019-02-26T07:27:55.849Z,2.90
2019-02-26T07:30:22.038Z,3.00
2019-02-26T07:32:50.303Z,2.80
2019-02-26T07:35:18.551Z,2.80
2019-02-26T07:37:47.579Z,2.80
2019-02-26T07:40:17.063Z,2.90
2019-02-26T07:42:46.754Z,3.00
2019-02-26T07:45:15.264Z,3.10
2019-02-26T07:47:41.398Z,3.40
2019-02-26T07:50:12.299Z,3.40
2019-02-26T07:52:38.039Z,3.60
2019-02-26T07:55:09.179Z,3.80
2019-02-26T07:57:34.582Z,4.00
2019-02-26T08:00:02.894Z,4.00
2019-02-26T08:02:32.533Z,4.10
2019-02-26T08:05:00.263Z,4.60
2019-02-26T08:07:30.395Z,4.60
2019-02-26T08:09:56.903Z,5.00
2019-02-26T08:12:25.227Z,5.40
2019-02-26T08:14:53.466Z,5.70
2019-02-26T08:17:21.718Z,6.00
2019-02-26T08:19:50.016Z,6.30
2019-02-26T08:22:18.392Z,6.60
2019-02-26T08:24:48.598Z,7.20
2019-02-26T08:27:15.764Z,8.10
2019-02-26T08:29:44.044Z,8.10
2019-02-26T08:32:15.864Z,8.40
2019-02-26T08:34:40.675Z,8.60
2019-02-26T08:37:09.055Z,8.50
2019-02-26T08:39:38.022Z,8.40
2019-02-26T08:42:07.251Z,8.50
2019-02-26T08:44:35.582Z,8.30
2019-02-26T08:47:08.745Z,8.00
2019-02-26T08:49:32.166Z,7.70
2019-02-26T08:52:00.459Z,7.60
2019-02-26T08:54:30.685Z,7.50
2019-02-26T08:56:57.139Z,7.30
2019-02-26T08:59:25.387Z,7.80
2019-02-26T09:01:53.764Z,8.20
2019-02-26T09:04:23.783Z,8.90
2019-02-26T09:06:52.312Z,9.80
2019-02-26T09:09:20.514Z,10.40
2019-02-26T09:11:46.942Z,10.50
2019-02-26T09:14:16.706Z,10.80
2019-02-26T09:16:43.493Z,10.90
2019-02-26T09:19:11.772Z,11.20
2019-02-26T09:21:42.536Z,11.40
2019-02-26T09:24:08.336Z,11.50
2019-02-26T09:26:36.614Z,11.80
2019-02-26T09:29:04.900Z,12.30
2019-02-26T09:31:33.167Z,12.60
2019-02-26T09:34:01.536Z,12.20
2019-02-26T09:36:29.915Z,12.10
2019-02-26T09:38:58.236Z,12.50
2019-02-26T09:41:26.567Z,12.70
2019-02-26T09:43:54.855Z,12.90
2019-02-26T09:46:23.138Z,13.10
2019-02-26T09:48:51.391Z,13.30
2019-02-26T09:51:19.683Z,13.10
2019-02-26T09:53:50.068Z,13.00
2019-02-26T09:56:16.241Z,13.00
2019-02-26T09:58:46.502Z,13.20
2019-02-26T10:01:13.534Z,13.50
2019-02-26T10:03:41.464Z,13.80
2019-02-26T10:06:11.328Z,14.10
2019-02-26T10:08:37.823Z,14.20
2019-02-26T10:11:06.212Z,14.50
2019-02-26T10:13:34.440Z,14.50
2019-02-26T10:16:04.477Z,14.20
2019-02-26T10:18:32.941Z,14.40
2019-02-26T10:20:59.775Z,14.60
2019-02-26T10:23:29.057Z,14.70
2019-02-26T10:25:57.846Z,15.00
2019-02-26T10:28:24.629Z,15.30
2019-02-26T10:30:55.082Z,15.60
2019-02-26T10:33:21.299Z,15.70
2019-02-26T10:35:49.941Z,15.50
2019-02-26T10:38:17.839Z,15.50
2019-02-26T10:40:53.500Z,15.30
2019-02-26T10:43:14.412Z,15.10
2019-02-26T10:45:44.778Z,14.90
2019-02-26T10:48:13.299Z,14.90
2019-02-26T10:50:42.599Z,15.10
2019-02-26T10:53:11.551Z,15.40
2019-02-26T10:55:39.324Z,15.70
2019-02-26T10:58:09.979Z,15.70
2019-02-26T11:00:35.353Z,15.80
2019-02-26T11:03:01.708Z,15.70
2019-02-26T11:05:29.988Z,15.60
2019-02-26T11:08:01.420Z,15.40
2019-02-26T11:10:26.578Z,15.70
2019-02-26T11:12:58.655Z,16.20
2019-02-26T11:15:26.229Z,16.20
2019-02-26T11:17:53.592Z,15.90
2019-02-26T11:20:21.949Z,15.80
2019-02-26T11:22:49.758Z,15.60
2019-02-26T11:25:18.462Z,16.10
2019-02-26T11:27:45.901Z,16.30
2019-02-26T11:30:21.110Z,16.20
2019-02-26T11:32:46.668Z,16.40
2019-02-26T11:35:17.037Z,16.90
2019-02-26T11:37:45.399Z,17.10
2019-02-26T11:40:14.122Z,16.70
2019-02-26T11:42:44.390Z,16.50
2019-02-26T11:45:12.606Z,16.50
2019-02-26T11:47:39.547Z,16.60
2019-02-26T11:50:09.250Z,16.60
2019-02-26T11:52:36.391Z,17.00
2019-02-26T11:55:06.119Z,16.60
2019-02-26T11:57:34.864Z,16.90
2019-02-26T12:00:01.859Z,16.80
2019-02-26T12:02:33.785Z,16.80
2019-02-26T12:04:59.906Z,17.20
2019-02-26T12:07:27.344Z,17.70
2019-02-26T12:09:55.556Z,18.00
2019-02-26T12:12:25.734Z,17.80
2019-02-26T12:14:51.931Z,17.80
2019-02-26T12:17:20.202Z,17.60
2019-02-26T12:19:49.114Z,17.60
2019-02-26T12:22:18.063Z,17.80
2019-02-26T12:24:45.297Z,17.90
2019-02-26T12:27:18.026Z,18.40
2019-02-26T12:29:44.920Z,18.50
2019-02-26T12:32:10.330Z,18.50
2019-02-26T12:34:41.065Z,17.80
2019-02-26T12:37:09.826Z,17.50
2019-02-26T12:39:35.192Z,17.40
2019-02-26T12:42:03.480Z,17.80
2019-02-26T12:44:32.905Z,18.10
2019-02-26T12:47:00.822Z,17.60
2019-02-26T12:49:29.599Z,17.60
2019-02-26T12:51:59.678Z,17.50
2019-02-26T12:54:26.868Z,17.50
2019-02-26T12:56:55.018Z,17.00
2019-02-26T12:59:26.143Z,16.80
2019-02-26T13:01:54.403Z,17.10
2019-02-26T13:04:24.904Z,17.50
2019-02-26T13:06:51.962Z,17.60
2019-02-26T13:09:19.328Z,18.20
2019-02-26T13:14:16.051Z,18.30
2019-02-26T13:16:46.320Z,18.00
2019-02-26T13:19:13.127Z,18.00
2019-02-26T13:21:43.003Z,17.70
2019-02-26T13:24:14.405Z,17.10
2019-02-26T13:26:39.082Z,17.00
2019-02-26T13:29:06.247Z,17.10
2019-02-26T13:31:41.723Z,17.40
2019-02-26T13:34:03.014Z,17.10
2019-02-26T13:36:35.705Z,16.90
2019-02-26T13:38:59.522Z,16.70
2019-02-26T13:41:30.268Z,16.70
2019-02-26T13:43:56.339Z,16.60
2019-02-26T13:46:25.416Z,16.40
2019-02-26T13:48:54.472Z,16.20
2019-02-26T13:51:22.863Z,16.10
2019-02-26T13:53:51.158Z,16.10
2019-02-26T13:56:19.573Z,16.00
2019-02-26T13:58:47.849Z,16.10
2019-02-26T14:01:16.160Z,15.90
2019-02-26T14:03:44.450Z,15.80
2019-02-26T14:06:12.813Z,15.80
2019-02-26T14:08:41.099Z,15.80
2019-02-26T14:11:10.995Z,15.90
2019-02-26T14:13:39.277Z,15.90
2019-02-26T14:16:07.630Z,15.80
2019-02-26T14:18:35.874Z,15.90
2019-02-26T14:21:04.955Z,15.70
2019-02-26T14:23:35.118Z,15.60
2019-02-26T14:26:02.282Z,15.50
2019-02-26T14:28:30.625Z,15.60
2019-02-26T14:30:58.875Z,15.80
2019-02-26T14:33:27.921Z,15.60
2019-02-26T14:35:57.197Z,15.60
2019-02-26T14:38:25.507Z,15.60
2019-02-26T14:40:53.811Z,15.70
2019-02-26T14:43:22.059Z,15.60
2019-02-26T14:45:50.345Z,15.70
2019-02-26T14:48:18.715Z,15.70
2019-02-26T14:50:47.016Z,15.70
2019-02-26T14:53:15.278Z,15.80
2019-02-26T14:55:43.645Z,16.00
2019-02-26T14:58:11.918Z,16.00
2019-02-26T15:00:40.196Z,15.80
2019-02-26T15:03:08.474Z,15.70
2019-02-26T15:05:36.787Z,15.60
2019-02-26T15:08:05.119Z,15.60
2019-02-26T15:10:33.395Z,15.80
2019-02-26T15:13:01.703Z,15.70
2019-02-26T15:15:31.474Z,15.60
2019-02-26T15:17:59.774Z,15.60
2019-02-26T15:20:28.051Z,15.50
2019-02-26T15:22:56.431Z,15.40
2019-02-26T15:25:24.679Z,15.30
2019-02-26T15:27:52.977Z,15.30
2019-02-26T15:30:21.326Z,15.30
2019-02-26T15:32:49.615Z,15.30
2019-02-26T15:35:17.902Z,15.30
2019-02-26T15:37:46.273Z,15.10
2019-02-26T15:40:15.363Z,15.10
2019-02-26T15:42:43.730Z,15.10
2019-02-26T15:45:13.407Z,15.00
2019-02-26T15:47:41.737Z,14.90
2019-02-26T15:50:10.094Z,14.80
2019-02-26T15:52:38.384Z,14.80
2019-02-26T15:55:06.665Z,14.90
2019-02-26T15:57:34.918Z,14.80
2019-02-26T16:00:06.306Z,14.70
2019-02-26T16:02:31.487Z,14.70
2019-02-26T16:04:59.763Z,14.80
2019-02-26T16:07:28.118Z,15.60
2019-02-26T16:09:56.390Z,15.60
2019-02-26T16:12:24.787Z,15.20
2019-02-26T16:14:53.031Z,14.90
2019-02-26T16:17:21.336Z,14.70
2019-02-26T16:19:49.706Z,14.50
2019-02-26T16:22:18.031Z,14.50
2019-02-26T16:24:47.087Z,14.20
2019-02-26T16:27:15.559Z,14.20
2019-02-26T16:29:43.859Z,14.10
2019-02-26T16:32:12.163Z,14.10
2019-02-26T16:34:40.456Z,14.10
2019-02-26T16:37:08.754Z,14.00
2019-02-26T16:39:37.023Z,14.00
2019-02-26T16:42:05.344Z,13.90
2019-02-26T16:44:33.616Z,13.90
2019-02-26T16:47:02.351Z,13.90
2019-02-26T16:49:30.654Z,13.80
2019-02-26T16:52:00.862Z,13.80
2019-02-26T16:54:27.296Z,13.70
2019-02-26T16:56:55.571Z,13.60
2019-02-26T16:59:23.954Z,13.60
2019-02-26T17:01:52.609Z,13.40
2019-02-26T17:04:20.691Z,13.30
2019-02-26T17:06:48.991Z,13.20
2019-02-26T17:09:19.033Z,13.10
2019-02-26T17:11:47.088Z,12.90
2019-02-26T17:14:17.359Z,12.90
2019-02-26T17:16:43.226Z,12.80
2019-02-26T17:19:15.304Z,12.60
2019-02-26T17:21:40.587Z,12.40
2019-02-26T17:24:08.911Z,12.40
2019-02-26T17:26:37.240Z,12.30
2019-02-26T17:29:05.551Z,12.10
2019-02-26T17:31:34.627Z,12.00
2019-02-26T17:34:02.991Z,12.00
2019-02-26T17:36:32.603Z,11.90
2019-02-26T17:38:59.751Z,11.80
2019-02-26T17:41:28.062Z,11.80
2019-02-26T17:43:59.499Z,11.60
2019-02-26T17:46:25.595Z,11.60
2019-02-26T17:48:53.906Z,11.50
2019-02-26T17:51:23.693Z,11.40
2019-02-26T17:53:51.967Z,11.40
2019-02-26T17:56:20.340Z,11.40
2019-02-26T17:58:49.542Z,11.30
2019-02-26T18:01:17.726Z,11.30
2019-02-26T18:03:46.789Z,11.20
2019-02-26T18:06:15.099Z,11.20
2019-02-26T18:08:44.274Z,11.10
2019-02-26T18:11:12.642Z,11.10
2019-02-26T18:13:40.938Z,11.00
2019-02-26T18:16:10.734Z,10.80
2019-02-26T18:18:39.107Z,10.80
2019-02-26T18:21:07.722Z,10.80
2019-02-26T18:23:37.754Z,10.70
2019-02-26T18:26:04.807Z,10.70
2019-02-26T18:28:33.069Z,10.80
2019-02-26T18:31:02.142Z,10.70
2019-02-26T18:33:30.816Z,10.70
2019-02-26T18:35:59.389Z,10.60
2019-02-26T18:38:27.375Z,10.50
2019-02-26T18:40:55.682Z,10.50
2019-02-26T18:43:24.771Z,10.40
2019-02-26T18:45:53.826Z,10.30
2019-02-26T18:48:22.301Z,10.30
2019-02-26T18:50:50.779Z,10.10
2019-02-26T18:53:19.150Z,10.00
2019-02-26T18:55:47.455Z,9.90
2019-02-26T18:58:16.478Z,10.00
2019-02-26T19:00:44.117Z,10.00
2019-02-26T19:03:12.462Z,9.90
2019-02-26T19:05:40.767Z,9.70
2019-02-26T19:08:09.048Z,9.60
2019-02-26T19:10:37.347Z,9.50
2019-02-26T19:13:05.631Z,9.40
2019-02-26T19:15:33.926Z,9.40
2019-02-26T19:18:03.263Z,9.30
2019-02-26T19:20:31.204Z,9.20
2019-02-26T19:22:59.617Z,9.20
2019-02-26T19:25:27.784Z,9.30
2019-02-26T19:27:56.150Z,9.30
2019-02-26T19:30:24.432Z,9.30
2019-02-26T19:32:52.848Z,9.30
2019-02-26T19:35:21.167Z,9.10
2019-02-26T19:37:50.176Z,8.90
2019-02-26T19:40:19.205Z,9.10
2019-02-26T19:42:47.488Z,9.10
2019-02-26T19:45:27.546Z,9.00
2019-02-26T19:47:56.547Z,9.00
2019-02-26T19:50:24.129Z,8.80
2019-02-26T19:52:57.035Z,8.70
2019-02-26T19:55:23.680Z,8.80
2019-02-26T19:57:51.951Z,8.90
2019-02-26T20:00:20.531Z,8.80
2019-02-26T20:02:49.381Z,8.60
2019-02-26T20:05:17.976Z,8.60
2019-02-26T20:07:46.291Z,8.60
2019-02-26T20:10:15.771Z,8.50
2019-02-26T20:12:43.636Z,8.60
2019-02-26T20:15:13.330Z,8.50
2019-02-26T20:17:40.965Z,8.50
2019-02-26T20:20:11.899Z,8.50
2019-02-26T20:22:40.388Z,8.50
2019-02-26T20:25:09.509Z,8.40
2019-02-26T20:27:37.792Z,8.40
2019-02-26T20:30:09.625Z,8.40
2019-02-26T20:32:36.298Z,8.30
2019-02-26T20:35:04.706Z,8.20
2019-02-26T20:37:33.034Z,8.30
2019-02-26T20:40:01.319Z,8.10
2019-02-26T20:42:29.615Z,8.00
2019-02-26T20:44:59.118Z,7.90
2019-02-26T20:47:31.181Z,7.80
2019-02-26T20:50:01.320Z,7.60
2019-02-26T20:52:32.630Z,7.70
2019-02-26T20:54:58.738Z,7.70
2019-02-26T20:57:27.023Z,7.90
2019-02-26T20:59:55.337Z,7.90
2019-02-26T21:02:24.497Z,7.70
2019-02-26T21:04:52.871Z,7.70
2019-02-26T21:07:24.173Z,7.70
2019-02-26T21:09:49.575Z,7.40
2019-02-26T21:12:17.899Z,7.40
2019-02-26T21:14:46.180Z,7.40
2019-02-26T21:17:14.559Z,7.50
2019-02-26T21:19:42.850Z,7.50
2019-02-26T21:22:11.211Z,7.30
2019-02-26T21:24:39.599Z,7.30
2019-02-26T21:27:08.345Z,7.30
2019-02-26T21:29:38.669Z,7.40
2019-02-26T21:32:05.032Z,7.30
2019-02-26T21:34:33.340Z,7.20
2019-02-26T21:37:02.390Z,7.10
2019-02-26T21:39:30.781Z,7.00
2019-02-26T21:41:59.072Z,7.10
2019-02-26T21:44:27.423Z,7.00
2019-02-26T21:46:56.089Z,7.00
2019-02-26T21:49:24.079Z,7.00
2019-02-26T21:51:52.416Z,7.10
2019-02-26T21:54:24.564Z,7.00
2019-02-26T21:56:49.515Z,7.00
2019-02-26T21:59:17.276Z,6.90
2019-02-26T22:01:46.099Z,6.80
2019-02-26T22:04:14.055Z,6.70
2019-02-26T22:06:44.416Z,6.60
2019-02-26T22:09:10.699Z,6.60
2019-02-26T22:11:38.970Z,6.50
2019-02-26T22:14:07.334Z,6.60
2019-02-26T22:16:35.646Z,6.70
2019-02-26T22:19:04.809Z,6.70
2019-02-26T22:21:32.997Z,6.70
2019-02-26T22:24:01.259Z,6.70
2019-02-26T22:26:29.544Z,6.70
2019-02-26T22:28:57.927Z,6.70
2019-02-26T22:31:28.697Z,6.50
2019-02-26T22:33:54.490Z,6.30
2019-02-26T22:36:22.778Z,6.10
2019-02-26T22:38:51.060Z,6.10
2019-02-26T22:41:20.145Z,6.00
2019-02-26T22:43:49.207Z,6.10
2019-02-26T22:46:17.458Z,6.10
2019-02-26T22:48:46.931Z,6.10
2019-02-26T22:51:14.039Z,6.00
2019-02-26T22:53:42.345Z,6.00
2019-02-26T22:56:11.409Z,6.30
2019-02-26T22:58:39.695Z,6.30
2019-02-26T23:01:10.923Z,6.30
2019-02-26T23:03:39.207Z,6.30
2019-02-26T23:06:07.507Z,6.30
2019-02-26T23:08:36.555Z,5.80
2019-02-26T23:11:04.824Z,5.80
2019-02-26T23:13:33.074Z,5.60
2019-02-26T23:16:01.373Z,5.80
2019-02-26T23:18:31.124Z,6.10
2019-02-26T23:20:57.947Z,6.00
2019-02-26T23:23:26.238Z,6.00
2019-02-26T23:25:54.530Z,6.00
2019-02-26T23:28:22.828Z,5.90
2019-02-26T23:30:51.127Z,5.60
2019-02-26T23:33:19.414Z,5.70
2019-02-26T23:35:47.800Z,5.80
2019-02-26T23:38:16.103Z,5.40
2019-02-26T23:40:45.165Z,5.80
2019-02-26T23:43:13.455Z,5.70
2019-02-26T23:45:42.549Z,5.80
2019-02-26T23:48:10.850Z,5.80
2019-02-26T23:50:39.931Z,5.70
2019-02-26T23:53:08.997Z,5.70
2019-02-26T23:55:37.292Z,5.60
2019-02-26T23:58:05.578Z,5.20
